createdAt,value
2022-12-14T00:01:54.374Z,171.10
2022-12-14T00:06:56.147Z,113.00
2022-12-14T00:11:58.808Z,201.80
2022-12-14T00:17:00.681Z,158.40
2022-12-14T00:22:02.432Z,162.40
2022-12-14T00:27:04.277Z,197.90
2022-12-14T00:32:06.450Z,180.80
2022-12-14T00:37:11.170Z,199.10
2022-12-14T00:42:12.910Z,151.30
2022-12-14T00:47:14.754Z,186.80
2022-12-14T00:52:16.515Z,187.50
2022-12-14T00:57:18.287Z,204.40
2022-12-14T01:02:20.187Z,206.70
2022-12-14T01:07:22.081Z,212.20
2022-12-14T01:12:23.881Z,224.30
2022-12-14T01:17:25.611Z,246.10
2022-12-14T01:22:27.461Z,215.80
2022-12-14T01:27:29.421Z,182.90
2022-12-14T01:32:31.255Z,154.20
2022-12-14T01:37:33.002Z,181.80
2022-12-14T01:42:36.546Z,129.20
2022-12-14T01:47:43.185Z,124.70
2022-12-14T01:52:47.861Z,113.60
2022-12-14T01:58:15.401Z,137.20
2022-12-14T02:03:38.228Z,118.60
2022-12-14T02:08:43.440Z,138.20
2022-12-14T02:13:45.260Z,119.40
2022-12-14T02:18:50.746Z,114.80
2022-12-14T02:24:20.078Z,113.80
2022-12-14T02:29:43.491Z,123.50
2022-12-14T02:35:18.804Z,105.60
2022-12-14T02:40:32.652Z,86.10
2022-12-14T02:46:03.446Z,95.50
2022-12-14T02:51:49.932Z,115.10
2022-12-14T02:56:59.689Z,78.40
2022-12-14T03:02:03.703Z,79.20
2022-12-14T03:07:34.208Z,111.40
2022-12-14T03:12:40.367Z,101.90
2022-12-14T03:17:46.551Z,111.20
2022-12-14T03:22:59.022Z,122.00
2022-12-14T03:28:14.443Z,72.40
2022-12-14T03:33:20.187Z,83.50
2022-12-14T03:38:37.939Z,109.80
2022-12-14T03:44:17.367Z,96.90
2022-12-14T03:49:32.824Z,93.30
2022-12-14T03:54:53.724Z,83.40
2022-12-14T04:00:13.087Z,76.90
2022-12-14T04:05:30.291Z,72.60
2022-12-14T04:10:58.818Z,77.20
2022-12-14T04:16:25.851Z,75.60
2022-12-14T04:21:40.101Z,62.60
2022-12-14T04:26:54.673Z,63.00
2022-12-14T04:32:25.845Z,74.90
2022-12-14T04:37:29.043Z,60.70
2022-12-14T04:42:41.616Z,47.80
2022-12-14T04:47:51.408Z,50.30
2022-12-14T04:53:01.782Z,54.90
2022-12-14T04:58:24.609Z,41.30
2022-12-14T05:03:32.244Z,63.80
2022-12-14T05:08:52.351Z,56.90
2022-12-14T05:18:55.789Z,49.00
2022-12-14T05:23:59.856Z,46.70
2022-12-14T05:29:01.690Z,35.20
2022-12-14T05:34:03.899Z,40.40
2022-12-14T05:39:06.073Z,38.30
2022-12-14T05:44:07.865Z,53.70
2022-12-14T05:49:09.981Z,49.70
2022-12-14T05:54:11.859Z,58.20
2022-12-14T05:59:15.852Z,50.60
2022-12-14T06:04:18.850Z,69.20
2022-12-14T06:09:20.801Z,54.20
2022-12-14T06:14:24.499Z,62.30
2022-12-14T06:19:26.241Z,64.40
2022-12-14T06:24:28.083Z,56.10
2022-12-14T06:29:29.889Z,45.40
2022-12-14T06:34:35.353Z,53.10
2022-12-14T06:39:40.442Z,35.20
2022-12-14T06:44:42.254Z,63.40
2022-12-14T06:49:44.629Z,49.40
2022-12-14T06:54:47.113Z,49.10
2022-12-14T06:59:48.860Z,52.60
2022-12-14T07:04:50.627Z,40.50
2022-12-14T07:09:52.498Z,53.00
2022-12-14T07:14:55.313Z,47.00
2022-12-14T07:19:57.277Z,50.20
2022-12-14T07:24:59.138Z,43.20
2022-12-14T07:30:01.014Z,47.10
2022-12-14T07:35:02.844Z,42.20
2022-12-14T07:40:05.356Z,49.60
2022-12-14T07:45:07.506Z,42.90
2022-12-14T07:50:09.517Z,50.10
2022-12-14T07:55:11.431Z,38.70
2022-12-14T08:00:13.786Z,41.50
2022-12-14T08:05:16.376Z,49.00
2022-12-14T08:10:18.218Z,42.70
2022-12-14T08:15:19.985Z,38.60
2022-12-14T08:20:21.756Z,46.20
2022-12-14T08:25:23.563Z,38.00
2022-12-14T08:30:25.429Z,48.20
2022-12-14T08:35:27.259Z,57.10
2022-12-14T08:40:29.681Z,45.10
2022-12-14T08:45:31.785Z,49.20
2022-12-14T08:50:33.595Z,46.90
2022-12-14T08:55:38.795Z,43.30
2022-12-14T09:00:40.856Z,39.60
2022-12-14T09:05:42.668Z,41.70
2022-12-14T09:10:50.744Z,48.70
2022-12-14T09:16:18.095Z,52.80
2022-12-14T09:21:20.113Z,51.10
2022-12-14T09:26:25.260Z,53.30
2022-12-14T09:31:27.995Z,56.80
2022-12-14T09:36:29.967Z,67.10
2022-12-14T09:41:34.812Z,68.50
2022-12-14T09:46:52.580Z,49.90
2022-12-14T09:51:57.285Z,52.80
2022-12-14T09:57:04.752Z,56.10
2022-12-14T10:02:40.302Z,41.70
2022-12-14T10:07:51.537Z,41.90
2022-12-14T10:13:13.453Z,43.20
2022-12-14T10:19:00.606Z,42.10
2022-12-14T10:24:06.400Z,37.00
2022-12-14T10:29:14.500Z,35.10
2022-12-14T10:34:24.763Z,30.80
2022-12-14T10:39:40.118Z,31.00
2022-12-14T10:45:23.331Z,30.30
2022-12-14T10:50:32.622Z,31.70
2022-12-14T10:55:40.158Z,30.90
2022-12-14T11:00:42.160Z,23.40
2022-12-14T11:06:03.927Z,29.20
2022-12-14T11:11:18.644Z,32.10
2022-12-14T11:16:36.501Z,34.00
2022-12-14T11:21:39.200Z,31.30
2022-12-14T11:26:42.945Z,31.10
2022-12-14T11:31:47.874Z,25.00
2022-12-14T11:36:50.243Z,26.50
2022-12-14T11:42:02.075Z,24.90
2022-12-14T11:47:13.238Z,30.20
2022-12-14T11:52:18.336Z,23.60
2022-12-14T11:57:30.947Z,21.30
2022-12-14T12:02:38.336Z,23.30
2022-12-14T12:07:56.851Z,23.90
2022-12-14T12:13:01.480Z,21.20
2022-12-14T12:18:17.106Z,31.30
2022-12-14T12:23:27.569Z,26.60
2022-12-14T12:28:35.715Z,29.20
2022-12-14T12:33:46.672Z,19.40
2022-12-14T12:39:24.902Z,23.70
2022-12-14T12:45:08.201Z,25.80
2022-12-14T12:50:32.154Z,29.80
2022-12-14T12:56:08.544Z,27.20
2022-12-14T13:01:42.487Z,24.60
2022-12-14T13:06:55.760Z,26.60
2022-12-14T13:11:58.598Z,39.10
2022-12-14T13:17:05.371Z,23.50
2022-12-14T13:22:15.125Z,37.10
2022-12-14T13:27:44.434Z,31.60
2022-12-14T13:32:55.733Z,25.30
2022-12-14T13:38:12.871Z,25.80
2022-12-14T13:44:08.201Z,27.20
2022-12-14T13:49:21.852Z,35.30
2022-12-14T13:54:30.471Z,39.70
2022-12-14T13:59:45.924Z,27.90
2022-12-14T14:04:47.735Z,29.80
2022-12-14T14:09:55.915Z,34.50
2022-12-14T14:15:07.931Z,26.70
2022-12-14T14:20:47.040Z,34.60
2022-12-14T14:25:48.891Z,35.10
2022-12-14T14:30:54.690Z,32.80
2022-12-14T14:36:25.173Z,28.90
2022-12-14T14:41:40.709Z,26.50
2022-12-14T14:46:48.158Z,28.00
2022-12-14T14:51:50.264Z,20.50
2022-12-14T14:56:53.117Z,31.40
2022-12-14T15:02:00.904Z,32.10
2022-12-14T15:07:07.526Z,27.40
2022-12-14T15:12:34.834Z,33.50
2022-12-14T15:17:36.672Z,23.80
2022-12-14T15:22:43.394Z,25.70
2022-12-14T15:27:48.579Z,29.90
2022-12-14T15:33:21.104Z,31.50
2022-12-14T15:38:27.717Z,25.00
2022-12-14T15:43:30.709Z,27.00
2022-12-14T15:48:35.171Z,33.00
2022-12-14T15:53:53.523Z,24.10
2022-12-14T15:59:01.190Z,27.70
2022-12-14T16:04:09.778Z,28.30
2022-12-14T16:09:19.615Z,27.70
2022-12-14T16:14:30.252Z,30.60
2022-12-14T16:19:57.611Z,24.50
2022-12-14T16:25:07.897Z,26.20
2022-12-14T16:30:21.896Z,26.90
2022-12-14T16:35:26.404Z,30.30
2022-12-14T16:40:32.098Z,36.60
2022-12-14T16:45:43.298Z,27.20
2022-12-14T16:50:57.017Z,31.50
2022-12-14T16:56:19.498Z,23.80
2022-12-14T17:01:25.342Z,38.20
2022-12-14T17:06:36.688Z,27.70
2022-12-14T17:11:40.189Z,38.10
2022-12-14T17:16:43.079Z,29.90
2022-12-14T17:21:45.112Z,30.00
2022-12-14T17:26:48.071Z,30.70
2022-12-14T17:31:52.899Z,36.50
2022-12-14T17:36:57.090Z,34.10
2022-12-14T17:42:00.677Z,28.70
2022-12-14T17:47:02.714Z,28.30
2022-12-14T17:52:07.955Z,25.70
2022-12-14T17:57:23.117Z,32.00
2022-12-14T18:02:32.830Z,31.70
2022-12-14T18:07:35.007Z,29.20
2022-12-14T18:12:36.920Z,35.90
2022-12-14T18:17:38.948Z,40.30
2022-12-14T18:22:41.035Z,41.20
2022-12-14T18:27:43.033Z,34.90
2022-12-14T18:32:46.132Z,33.50
2022-12-14T18:37:51.688Z,31.50
2022-12-14T18:42:56.508Z,31.40
2022-12-14T18:47:59.815Z,36.80
2022-12-14T18:53:05.031Z,48.10
2022-12-14T18:58:09.959Z,39.10
2022-12-14T19:03:15.457Z,46.10
2022-12-14T19:08:18.104Z,47.00
2022-12-14T19:13:26.148Z,37.80
2022-12-14T19:18:30.881Z,40.50
2022-12-14T19:23:33.269Z,32.30
2022-12-14T19:28:35.745Z,30.40
2022-12-14T19:33:40.966Z,37.90
2022-12-14T19:38:42.980Z,41.70
2022-12-14T19:43:47.634Z,37.30
2022-12-14T19:48:51.467Z,40.80
2022-12-14T19:53:55.210Z,46.10
2022-12-14T19:59:03.691Z,48.90
2022-12-14T20:04:06.356Z,47.90
2022-12-14T20:09:08.856Z,37.30
2022-12-14T20:14:12.573Z,35.30
2022-12-14T20:19:16.485Z,43.00
2022-12-14T20:24:21.301Z,43.80
2022-12-14T20:29:24.765Z,38.00
2022-12-14T20:34:29.137Z,44.50
2022-12-14T20:39:31.196Z,46.00
2022-12-14T20:44:33.101Z,47.60
2022-12-14T20:49:35.023Z,49.90
2022-12-14T20:54:36.967Z,46.50
2022-12-14T20:59:38.813Z,52.40
2022-12-14T21:04:40.576Z,68.50
2022-12-14T21:09:42.280Z,72.30
2022-12-14T21:14:48.105Z,56.40
2022-12-14T21:19:50.891Z,73.60
2022-12-14T21:25:08.259Z,89.80
2022-12-14T21:30:11.495Z,90.40
2022-12-14T21:35:17.807Z,92.10
2022-12-14T21:40:39.589Z,85.30
2022-12-14T21:45:41.528Z,102.50
2022-12-14T21:50:45.260Z,96.60
2022-12-14T21:55:51.669Z,111.20
2022-12-14T22:00:53.470Z,111.20
2022-12-14T22:05:55.258Z,119.30
2022-12-14T22:11:02.496Z,95.20
2022-12-14T22:16:07.623Z,124.10
2022-12-14T22:21:10.044Z,94.30
2022-12-14T22:26:11.906Z,118.70
2022-12-14T22:31:13.956Z,76.60
2022-12-14T22:36:16.244Z,105.80
2022-12-14T22:41:20.194Z,115.60
2022-12-14T22:46:23.543Z,96.40
2022-12-14T22:51:26.122Z,101.70
2022-12-14T22:56:34.203Z,104.90
2022-12-14T23:01:37.589Z,121.30
2022-12-14T23:06:40.969Z,119.10
2022-12-14T23:12:01.490Z,115.70
2022-12-14T23:17:22.502Z,112.50
2022-12-14T23:22:42.967Z,106.20
2022-12-14T23:28:03.527Z,105.20
2022-12-14T23:33:23.973Z,96.30
2022-12-14T23:38:44.623Z,95.30
2022-12-14T23:44:05.232Z,76.30
2022-12-14T23:49:25.981Z,78.70
2022-12-14T23:54:46.456Z,83.50
